NWWU

Touho Airport

Touho, New Caledonia
TAF NWWU 211700Z 2118/2218 14014KT 9999 FEW020 SCT050
Issued Valid From Valid To
Jan-21 @ 17:00 UTC
(8 hours ago)
Jan-21 @ 18:00 UTC
(7 hours ago)
Jan-22 @ 18:00 UTC
(in 17 hours)
Jan-21 @ 18:00 to Jan-22 @ 18:00
TAF NWWU 211700Z 2118/2218 14014KT 9999 FEW020 SCT050
Wind Visibility Clouds
140° at 14 knots 10,000+ meters
  • Few at 2,000' AGL
  • Scattered at 5,000' AGL
TAF NWWU 211700Z 2118/2218 14014KT 9999 FEW020 SCT050
Issued Jan-21 @ 17:00 UTC
(8 hours ago)
Valid From Jan-21 @ 18:00 UTC
(7 hours ago)
Valid To Jan-22 @ 18:00 UTC
(in 17 hours)
Jan-21 @ 18:00 - Jan-22 @ 18:00
Wind Visibility
140° at 14 knots 10,000+ meters
Clouds
  • Few at 2,000' AGL
  • Scattered at 5,000' AGL